Terminal Aerodrome Forecast
Issued by NWS Jackson, KY

Home | Current Version | Previous Version | Text Only | Print | Product List | Glossary On
Versions: 1 2 3 4 5 6 7 8 9 10 11 12 13
000
FTUS43 KJKL 221740
TAFLOZ
TAF
KLOZ 221740Z 2218/2318 35010G17KT P6SM FEW250
     FM222300 32006KT P6SM SCT150
     FM231500 02006KT P6SM FEW250=

USA.gov is the U.S. government's official web portal to all federal, state and local government web resources and services.